createdAt,value
2022-09-15T00:02:49.139Z,99126
2022-09-15T00:07:49.018Z,99107
2022-09-15T00:12:49.027Z,99085
2022-09-15T00:17:49.034Z,99043
2022-09-15T00:22:49.051Z,99043
2022-09-15T00:27:49.004Z,99049
2022-09-15T00:32:49.030Z,99057
2022-09-15T00:37:49.012Z,99057
2022-09-15T00:47:49.042Z,99155
2022-09-15T00:52:49.100Z,99169
2022-09-15T00:57:49.018Z,99179
2022-09-15T01:02:49.097Z,99169
2022-09-15T01:07:49.036Z,99169
2022-09-15T01:12:49.077Z,99167
2022-09-15T01:17:49.042Z,99174
2022-09-15T01:22:49.078Z,99174
2022-09-15T01:27:49.060Z,99176
2022-09-15T01:32:49.055Z,99176
2022-09-15T01:37:49.059Z,99162
2022-09-15T01:42:49.128Z,99158
2022-09-15T01:47:49.083Z,99178
2022-09-15T01:52:49.099Z,99178
2022-09-15T01:57:49.059Z,99175
2022-09-15T02:07:49.108Z,99166
2022-09-15T02:22:49.322Z,99161
2022-09-15T02:27:49.054Z,99173
2022-09-15T02:32:49.089Z,99164
2022-09-15T02:37:49.097Z,99173
2022-09-15T02:42:49.101Z,99179
2022-09-15T02:47:49.375Z,99179
2022-09-15T02:52:49.127Z,99178
2022-09-15T02:57:49.129Z,99178
2022-09-15T03:02:49.097Z,99177
2022-09-15T03:07:49.099Z,99167
2022-09-15T03:12:49.108Z,99165
2022-09-15T03:22:49.151Z,99174
2022-09-15T03:27:49.118Z,99173
2022-09-15T03:32:49.158Z,99178
2022-09-15T03:37:49.147Z,99172
2022-09-15T03:42:49.134Z,99171
2022-09-15T03:47:49.118Z,99163
2022-09-15T03:52:49.156Z,99167
2022-09-15T03:57:49.136Z,99173
2022-09-15T04:02:49.123Z,99181
2022-09-15T04:07:49.158Z,99175
2022-09-15T04:12:49.158Z,99181
2022-09-15T04:17:49.128Z,99186
2022-09-15T04:22:49.156Z,99186
2022-09-15T04:27:49.178Z,99182
2022-09-15T04:32:49.148Z,99182
2022-09-15T04:37:49.177Z,99195
2022-09-15T04:42:49.156Z,99206
2022-09-15T04:47:49.165Z,99201
2022-09-15T04:52:49.178Z,99204
2022-09-15T04:57:49.162Z,99206
2022-09-15T05:02:49.172Z,99203
2022-09-15T05:07:49.188Z,99197
2022-09-15T05:12:49.186Z,99205
2022-09-15T05:17:49.177Z,99205
2022-09-15T05:22:49.254Z,99217
2022-09-15T05:27:49.205Z,99233
2022-09-15T05:32:49.192Z,99237
2022-09-15T05:37:49.204Z,99258
2022-09-15T05:42:49.190Z,99253
2022-09-15T05:47:49.190Z,99255
2022-09-15T05:52:49.168Z,99265
2022-09-15T05:57:49.210Z,99260
2022-09-15T06:02:49.297Z,99246
2022-09-15T06:07:49.210Z,99249
2022-09-15T06:12:49.221Z,99247
2022-09-15T06:17:49.224Z,99253
2022-09-15T06:22:49.174Z,99256
2022-09-15T06:27:49.222Z,99265
2022-09-15T06:32:49.231Z,99282
2022-09-15T06:37:49.205Z,99286
2022-09-15T06:42:49.220Z,99286
2022-09-15T06:47:58.266Z,99289
2022-09-15T06:52:49.231Z,99286
2022-09-15T06:57:49.228Z,99292
2022-09-15T07:02:49.411Z,99296
2022-09-15T07:07:49.212Z,99297
2022-09-15T07:12:49.246Z,99300
2022-09-15T07:17:49.233Z,99318
2022-09-15T07:22:49.256Z,99322
2022-09-15T07:27:49.243Z,99324
2022-09-15T07:32:49.268Z,99319
2022-09-15T07:37:49.265Z,99316
2022-09-15T07:42:49.248Z,99328
2022-09-15T07:47:49.229Z,99328
2022-09-15T07:52:49.263Z,99332
2022-09-15T07:57:49.233Z,99331
2022-09-15T08:02:49.271Z,99333
2022-09-15T08:07:49.276Z,99331
2022-09-15T08:12:49.518Z,99330
2022-09-15T08:17:49.263Z,99339
2022-09-15T08:22:49.287Z,99339
2022-09-15T08:27:49.298Z,99332
2022-09-15T08:32:49.256Z,99331
2022-09-15T08:37:49.279Z,99320
2022-09-15T08:42:49.282Z,99317
2022-09-15T08:47:49.327Z,99300
2022-09-15T08:52:49.285Z,99300
2022-09-15T08:57:49.296Z,99298
2022-09-15T09:02:49.358Z,99294
2022-09-15T09:07:49.317Z,99278
2022-09-15T09:12:49.323Z,99277
2022-09-15T09:17:49.296Z,99261
2022-09-15T09:22:49.312Z,99263
2022-09-15T09:27:49.341Z,99263
2022-09-15T09:32:49.292Z,99242
2022-09-15T09:37:49.342Z,99253
2022-09-15T09:42:49.351Z,99251
2022-09-15T09:47:49.584Z,99246
2022-09-15T09:52:49.312Z,99238
2022-09-15T09:57:49.336Z,99238
2022-09-15T10:02:49.435Z,99226
2022-09-15T10:07:50.555Z,99218
2022-09-15T10:12:49.360Z,99218
2022-09-15T10:17:49.361Z,99192
2022-09-15T10:22:49.337Z,99190
2022-09-15T10:27:49.369Z,99173
2022-09-15T10:32:49.349Z,99168
2022-09-15T10:37:49.356Z,99172
2022-09-15T10:42:49.376Z,99166
2022-09-15T10:47:49.337Z,99173
2022-09-15T10:52:49.355Z,99185
2022-09-15T10:57:49.382Z,99177
2022-09-15T11:02:49.370Z,99172
2022-09-15T11:07:49.364Z,99168
2022-09-15T11:12:49.384Z,99166
2022-09-15T11:17:49.389Z,99165
2022-09-15T11:22:49.700Z,99170
2022-09-15T11:27:49.390Z,99167
2022-09-15T11:32:52.837Z,99157
2022-09-15T11:37:49.413Z,99154
2022-09-15T11:42:49.354Z,99153
2022-09-15T11:47:49.384Z,99135
2022-09-15T11:52:49.395Z,99116
2022-09-15T12:02:49.439Z,99100
2022-09-15T12:07:49.411Z,99111
2022-09-15T12:12:49.418Z,99110
2022-09-15T12:17:49.406Z,99120
2022-09-15T12:22:49.408Z,99106
2022-09-15T12:27:49.425Z,99102
2022-09-15T12:32:49.419Z,99090
2022-09-15T12:37:49.487Z,99093
2022-09-15T12:42:49.429Z,99100
2022-09-15T12:47:49.397Z,99106
2022-09-15T12:52:49.440Z,99110
2022-09-15T12:57:49.405Z,99114
2022-09-15T13:02:49.562Z,99131
2022-09-15T13:07:49.464Z,99140
2022-09-15T13:12:49.442Z,99113
2022-09-15T13:17:49.438Z,99107
2022-09-15T13:22:49.428Z,99091
2022-09-15T13:27:49.446Z,99082
2022-09-15T13:32:49.412Z,99093
2022-09-15T13:38:20.074Z,99102
2022-09-15T13:42:49.469Z,99097
2022-09-15T13:47:49.457Z,99128
2022-09-15T13:52:49.479Z,99122
2022-09-15T14:02:49.453Z,99124
2022-09-15T14:07:52.174Z,99120
2022-09-15T14:12:49.484Z,99098
2022-09-15T14:22:49.491Z,99098
2022-09-15T14:27:49.497Z,99118
2022-09-15T14:32:49.488Z,99118
2022-09-15T14:37:49.493Z,99084
2022-09-15T14:42:49.480Z,99105
2022-09-15T14:47:49.478Z,99105
2022-09-15T14:52:49.499Z,99136
2022-09-15T14:57:49.522Z,99147
2022-09-15T15:02:49.499Z,99159
2022-09-15T15:07:49.468Z,99160
2022-09-15T15:12:49.495Z,99157
2022-09-15T15:17:49.559Z,99157
2022-09-15T15:22:49.484Z,99133
2022-09-15T15:32:49.565Z,99062
2022-09-15T15:37:49.531Z,99074
2022-09-15T15:42:49.516Z,99133
2022-09-15T15:47:49.545Z,99119
2022-09-15T15:52:49.542Z,99106
2022-09-15T15:57:49.524Z,99093
2022-09-15T16:07:49.545Z,99071
2022-09-15T16:12:49.531Z,99073
2022-09-15T16:17:49.501Z,99048
2022-09-15T16:22:49.545Z,99054
2022-09-15T16:27:49.547Z,99055
2022-09-15T16:32:49.515Z,99052
2022-09-15T16:37:49.557Z,99074
2022-09-15T16:42:49.554Z,99087
2022-09-15T16:47:49.549Z,99075
2022-09-15T16:52:49.561Z,99073
2022-09-15T16:57:49.526Z,99083
2022-09-15T17:02:49.553Z,99084
2022-09-15T17:07:49.552Z,99087
2022-09-15T17:12:49.759Z,99091
2022-09-15T17:17:49.578Z,99091
2022-09-15T17:22:49.568Z,99087
2022-09-15T17:27:49.692Z,99085
2022-09-15T17:32:49.591Z,99085
2022-09-15T17:37:49.601Z,99074
2022-09-15T17:42:49.586Z,99076
2022-09-15T17:47:49.679Z,99077
2022-09-15T17:52:49.617Z,99075
2022-09-15T17:57:49.580Z,99078
2022-09-15T18:02:49.865Z,99082
2022-09-15T18:07:49.750Z,99080
2022-09-15T18:12:52.243Z,99076
2022-09-15T18:22:49.795Z,99069
2022-09-15T18:27:49.769Z,99074
2022-09-15T18:32:49.746Z,99078
2022-09-15T18:37:49.810Z,99087
2022-09-15T18:42:49.763Z,99088
2022-09-15T18:47:49.699Z,99088
2022-09-15T18:52:49.636Z,99091
2022-09-15T18:57:49.795Z,99101
2022-09-15T19:02:49.804Z,99109
2022-09-15T19:07:49.801Z,99115
2022-09-15T19:12:49.763Z,99125
2022-09-15T19:17:49.801Z,99142
2022-09-15T19:22:49.804Z,99134
2022-09-15T19:27:49.770Z,99139
2022-09-15T19:32:49.693Z,99122
2022-09-15T19:37:49.752Z,99135
2022-09-15T19:42:49.750Z,99137
2022-09-15T19:47:49.743Z,99141
2022-09-15T19:52:49.736Z,99143
2022-09-15T19:57:49.685Z,99141
2022-09-15T20:02:49.608Z,99145
2022-09-15T20:07:49.608Z,99146
2022-09-15T20:12:49.973Z,99152
2022-09-15T20:17:49.660Z,99160
2022-09-15T20:22:49.615Z,99158
2022-09-15T20:37:49.646Z,99187
2022-09-15T20:42:49.686Z,99182
2022-09-15T20:47:49.706Z,99184
2022-09-15T20:52:49.689Z,99183
2022-09-15T20:57:49.646Z,99192
2022-09-15T21:02:49.698Z,99200
2022-09-15T21:17:49.706Z,99203
2022-09-15T21:22:49.675Z,99203
2022-09-15T21:27:49.679Z,99206
2022-09-15T21:37:49.717Z,99191
2022-09-15T21:42:49.688Z,99191
2022-09-15T21:47:49.706Z,99210
2022-09-15T21:52:49.720Z,99222
2022-09-15T21:57:49.686Z,99239
2022-09-15T22:07:49.700Z,99265
2022-09-15T22:12:49.682Z,99277
2022-09-15T22:22:49.727Z,99306
2022-09-15T22:27:49.749Z,99305
2022-09-15T22:32:49.684Z,99311
2022-09-15T22:37:49.736Z,99310
2022-09-15T22:42:49.706Z,99308
2022-09-15T22:47:49.740Z,99319
2022-09-15T22:52:49.728Z,99332
2022-09-15T22:57:49.747Z,99337
2022-09-15T23:02:49.701Z,99334
2022-09-15T23:07:49.732Z,99340
2022-09-15T23:12:49.743Z,99358
2022-09-15T23:17:49.765Z,99367
2022-09-15T23:22:49.731Z,99376
2022-09-15T23:27:49.776Z,99376
2022-09-15T23:32:49.748Z,99376
2022-09-15T23:37:49.761Z,99377
2022-09-15T23:47:49.929Z,99385
2022-09-15T23:52:49.750Z,99389
2022-09-15T23:57:49.753Z,99386
